sensor_id;sensor_type;location;lat;lon;timestamp;pressure;altitude;pressure_sealevel;temperature;humidity
77574;BME280;66710;48.868;9.080;2023-07-29T00:01:49;97617.56;;;16.23;100.00
77574;BME280;66710;48.868;9.080;2023-07-29T00:04:14;97612.53;;;16.25;100.00
77574;BME280;66710;48.868;9.080;2023-07-29T00:06:40;97615.28;;;16.25;100.00
77574;BME280;66710;48.868;9.080;2023-07-29T00:09:05;97609.00;;;16.24;100.00
77574;BME280;66710;48.868;9.080;2023-07-29T00:11:31;97605.63;;;16.27;100.00
77574;BME280;66710;48.868;9.080;2023-07-29T00:14:02;97600.75;;;16.24;100.00
77574;BME280;66710;48.868;9.080;2023-07-29T00:16:27;97605.75;;;16.22;100.00
77574;BME280;66710;48.868;9.080;2023-07-29T00:18:53;97600.91;;;16.28;100.00
77574;BME280;66710;48.868;9.080;2023-07-29T00:21:18;97597.22;;;16.33;100.00
77574;BME280;66710;48.868;9.080;2023-07-29T00:23:44;97597.06;;;16.38;100.00
77574;BME280;66710;48.868;9.080;2023-07-29T00:26:10;97590.59;;;16.42;100.00
77574;BME280;66710;48.868;9.080;2023-07-29T00:28:35;97602.75;;;16.41;100.00
77574;BME280;66710;48.868;9.080;2023-07-29T00:31:02;97603.53;;;16.42;100.00
77574;BME280;66710;48.868;9.080;2023-07-29T00:33:27;97601.75;;;16.46;100.00
77574;BME280;66710;48.868;9.080;2023-07-29T00:35:52;97608.56;;;16.48;100.00
77574;BME280;66710;48.868;9.080;2023-07-29T00:38:18;97595.31;;;16.51;100.00
77574;BME280;66710;48.868;9.080;2023-07-29T00:40:43;97594.00;;;16.57;100.00
77574;BME280;66710;48.868;9.080;2023-07-29T00:43:09;97594.69;;;16.62;100.00
77574;BME280;66710;48.868;9.080;2023-07-29T00:45:34;97586.25;;;16.67;100.00
77574;BME280;66710;48.868;9.080;2023-07-29T00:48:01;97588.19;;;16.67;100.00
77574;BME280;66710;48.868;9.080;2023-07-29T00:50:27;97584.63;;;16.66;100.00
77574;BME280;66710;48.868;9.080;2023-07-29T00:52:54;97584.94;;;16.56;100.00
77574;BME280;66710;48.868;9.080;2023-07-29T00:55:20;97597.72;;;16.52;100.00
77574;BME280;66710;48.868;9.080;2023-07-29T00:57:45;97586.25;;;16.50;100.00
77574;BME280;66710;48.868;9.080;2023-07-29T01:00:14;97590.44;;;16.47;100.00
77574;BME280;66710;48.868;9.080;2023-07-29T01:02:39;97587.38;;;16.58;100.00
77574;BME280;66710;48.868;9.080;2023-07-29T01:05:05;97582.06;;;16.79;100.00
77574;BME280;66710;48.868;9.080;2023-07-29T01:07:48;97582.03;;;16.61;100.00
77574;BME280;66710;48.868;9.080;2023-07-29T01:10:40;97579.63;;;16.60;100.00
77574;BME280;66710;48.868;9.080;2023-07-29T01:13:37;97575.75;;;16.61;100.00
77574;BME280;66710;48.868;9.080;2023-07-29T01:16:11;97569.56;;;16.64;100.00
77574;BME280;66710;48.868;9.080;2023-07-29T01:18:38;97567.66;;;16.64;100.00
77574;BME280;66710;48.868;9.080;2023-07-29T01:21:07;97571.22;;;16.65;100.00
77574;BME280;66710;48.868;9.080;2023-07-29T01:23:36;97573.16;;;16.64;100.00
77574;BME280;66710;48.868;9.080;2023-07-29T01:26:02;97573.16;;;16.64;100.00
77574;BME280;66710;48.868;9.080;2023-07-29T01:28:28;97571.38;;;16.68;100.00
77574;BME280;66710;48.868;9.080;2023-07-29T01:31:16;97567.81;;;16.68;100.00
77574;BME280;66710;48.868;9.080;2023-07-29T01:33:48;97563.75;;;16.65;100.00
77574;BME280;66710;48.868;9.080;2023-07-29T01:36:21;97564.22;;;16.67;100.00
77574;BME280;66710;48.868;9.080;2023-07-29T01:38:49;97564.91;;;16.73;100.00
77574;BME280;66710;48.868;9.080;2023-07-29T01:41:16;97563.91;;;16.78;100.00
77574;BME280;66710;48.868;9.080;2023-07-29T01:43:43;97558.44;;;16.86;100.00
77574;BME280;66710;48.868;9.080;2023-07-29T01:46:12;97553.41;;;16.89;100.00
77574;BME280;66710;48.868;9.080;2023-07-29T01:48:38;97560.38;;;16.95;100.00
77574;BME280;66710;48.868;9.080;2023-07-29T01:51:04;97554.25;;;16.98;100.00
77574;BME280;66710;48.868;9.080;2023-07-29T01:53:30;97554.09;;;16.94;100.00
77574;BME280;66710;48.868;9.080;2023-07-29T01:55:55;97548.59;;;16.94;100.00
77574;BME280;66710;48.868;9.080;2023-07-29T01:58:22;97541.44;;;16.93;100.00
77574;BME280;66710;48.868;9.080;2023-07-29T02:00:47;97540.47;;;16.98;100.00
77574;BME280;66710;48.868;9.080;2023-07-29T02:03:13;97537.38;;;16.99;100.00
77574;BME280;66710;48.868;9.080;2023-07-29T02:05:38;97536.41;;;16.95;100.00
77574;BME280;66710;48.868;9.080;2023-07-29T02:08:03;97536.25;;;16.92;100.00
77574;BME280;66710;48.868;9.080;2023-07-29T02:10:29;97537.41;;;16.91;100.00
77574;BME280;66710;48.868;9.080;2023-07-29T02:12:54;97540.16;;;16.91;100.00
77574;BME280;66710;48.868;9.080;2023-07-29T02:15:19;97536.44;;;16.86;100.00
77574;BME280;66710;48.868;9.080;2023-07-29T02:17:45;97530.13;;;16.86;100.00
77574;BME280;66710;48.868;9.080;2023-07-29T02:20:10;97527.69;;;16.84;100.00
77574;BME280;66710;48.868;9.080;2023-07-29T02:22:36;97531.88;;;16.82;100.00
77574;BME280;66710;48.868;9.080;2023-07-29T02:25:02;97536.09;;;16.79;100.00
77574;BME280;66710;48.868;9.080;2023-07-29T02:27:28;97532.06;;;16.77;100.00
77574;BME280;66710;48.868;9.080;2023-07-29T02:29:53;97544.97;;;16.76;100.00
77574;BME280;66710;48.868;9.080;2023-07-29T02:32:19;97538.19;;;16.82;100.00
77574;BME280;66710;48.868;9.080;2023-07-29T02:34:45;97530.13;;;16.86;100.00
77574;BME280;66710;48.868;9.080;2023-07-29T02:37:10;97534.00;;;16.85;100.00
77574;BME280;66710;48.868;9.080;2023-07-29T02:39:36;97530.91;;;16.78;100.00
77574;BME280;66710;48.868;9.080;2023-07-29T02:42:02;97532.06;;;16.77;100.00
77574;BME280;66710;48.868;9.080;2023-07-29T02:44:27;97529.16;;;16.73;100.00
77574;BME280;66710;48.868;9.080;2023-07-29T02:46:53;97533.97;;;16.67;100.00
77574;BME280;66710;48.868;9.080;2023-07-29T02:49:20;97531.56;;;16.66;100.00
77574;BME280;66710;48.868;9.080;2023-07-29T02:51:46;97532.06;;;16.68;100.00
77574;BME280;66710;48.868;9.080;2023-07-29T02:54:11;97524.94;;;16.67;100.00
77574;BME280;66710;48.868;9.080;2023-07-29T02:56:36;97523.31;;;16.66;100.00
77574;BME280;66710;48.868;9.080;2023-07-29T02:59:02;97515.41;;;16.64;100.00
77574;BME280;66710;48.868;9.080;2023-07-29T03:01:27;97511.50;;;16.65;100.00
77574;BME280;66710;48.868;9.080;2023-07-29T03:03:52;97501.63;;;16.64;100.00
77574;BME280;66710;48.868;9.080;2023-07-29T03:06:18;97505.34;;;16.60;100.00
77574;BME280;66710;48.868;9.080;2023-07-29T03:08:44;97504.06;;;16.57;100.00
77574;BME280;66710;48.868;9.080;2023-07-29T03:11:11;97503.75;;;16.50;100.00
77574;BME280;66710;48.868;9.080;2023-07-29T03:13:37;97492.75;;;16.50;100.00
77574;BME280;66710;48.868;9.080;2023-07-29T03:16:10;97503.56;;;16.55;100.00
77574;BME280;66710;48.868;9.080;2023-07-29T03:18:36;97497.75;;;16.57;100.00
77574;BME280;66710;48.868;9.080;2023-07-29T03:21:02;97497.91;;;16.52;100.00
77574;BME280;66710;48.868;9.080;2023-07-29T03:23:29;97494.34;;;16.51;100.00
77574;BME280;66710;48.868;9.080;2023-07-29T03:25:55;97501.16;;;16.54;100.00
77574;BME280;66710;48.868;9.080;2023-07-29T03:28:23;97500.97;;;16.59;100.00
77574;BME280;66710;48.868;9.080;2023-07-29T03:30:49;97493.06;;;16.66;100.00
77574;BME280;66710;48.868;9.080;2023-07-29T03:33:14;97497.09;;;16.68;100.00
77574;BME280;66710;48.868;9.080;2023-07-29T03:35:39;97499.03;;;16.77;100.00
77574;BME280;66710;48.868;9.080;2023-07-29T03:38:05;97498.56;;;16.75;100.00
77574;BME280;66710;48.868;9.080;2023-07-29T03:40:30;97500.47;;;16.83;100.00
77574;BME280;66710;48.868;9.080;2023-07-29T03:42:56;97500.19;;;16.84;100.00
77574;BME280;66710;48.868;9.080;2023-07-29T03:45:21;97495.28;;;16.81;100.00
77574;BME280;66710;48.868;9.080;2023-07-29T03:47:46;97491.59;;;16.86;100.00
77574;BME280;66710;48.868;9.080;2023-07-29T03:50:12;97495.31;;;16.90;100.00
77574;BME280;66710;48.868;9.080;2023-07-29T03:52:37;97499.38;;;16.93;100.00
77574;BME280;66710;48.868;9.080;2023-07-29T03:55:02;97493.53;;;16.94;100.00
77574;BME280;66710;48.868;9.080;2023-07-29T03:57:28;97498.88;;;16.91;100.00
77574;BME280;66710;48.868;9.080;2023-07-29T03:59:54;97498.03;;;16.81;100.00
77574;BME280;66710;48.868;9.080;2023-07-29T04:02:19;97507.13;;;16.73;100.00
77574;BME280;66710;48.868;9.080;2023-07-29T04:04:45;97492.06;;;16.71;100.00
77574;BME280;66710;48.868;9.080;2023-07-29T04:07:12;97484.81;;;16.66;100.00
77574;BME280;66710;48.868;9.080;2023-07-29T04:09:38;97492.09;;;16.62;100.00
77574;BME280;66710;48.868;9.080;2023-07-29T04:12:03;97485.47;;;16.63;100.00
77574;BME280;66710;48.868;9.080;2023-07-29T04:14:29;97483.19;;;16.65;100.00
77574;BME280;66710;48.868;9.080;2023-07-29T04:16:54;97486.25;;;16.63;100.00
77574;BME280;66710;48.868;9.080;2023-07-29T04:19:20;97484.31;;;16.64;100.00
77574;BME280;66710;48.868;9.080;2023-07-29T04:21:45;97488.69;;;16.65;100.00
77574;BME280;66710;48.868;9.080;2023-07-29T04:24:11;97492.41;;;16.69;100.00
77574;BME280;66710;48.868;9.080;2023-07-29T04:26:36;97505.03;;;16.70;100.00
77574;BME280;66710;48.868;9.080;2023-07-29T04:29:04;97514.06;;;16.71;100.00
77574;BME280;66710;48.868;9.080;2023-07-29T04:31:29;97521.69;;;16.65;100.00
77574;BME280;66710;48.868;9.080;2023-07-29T04:33:54;97522.81;;;16.55;100.00
77574;BME280;66710;48.868;9.080;2023-07-29T04:36:20;97512.00;;;16.50;100.00
77574;BME280;66710;48.868;9.080;2023-07-29T04:38:45;97538.19;;;16.47;100.00
77574;BME280;66710;48.868;9.080;2023-07-29T04:41:11;97543.38;;;16.49;100.00
77574;BME280;66710;48.868;9.080;2023-07-29T04:43:36;97551.13;;;16.47;100.00
77574;BME280;66710;48.868;9.080;2023-07-29T04:46:01;97551.13;;;16.47;100.00
77574;BME280;66710;48.868;9.080;2023-07-29T04:48:27;97553.41;;;16.45;100.00
77574;BME280;66710;48.868;9.080;2023-07-29T04:50:52;97541.41;;;16.41;100.00
77574;BME280;66710;48.868;9.080;2023-07-29T04:53:17;97536.56;;;16.29;100.00
77574;BME280;66710;48.868;9.080;2023-07-29T04:55:43;97516.19;;;16.30;100.00
77574;BME280;66710;48.868;9.080;2023-07-29T04:58:09;97505.03;;;16.35;100.00
77574;BME280;66710;48.868;9.080;2023-07-29T05:00:34;97512.47;;;16.35;100.00
77574;BME280;66710;48.868;9.080;2023-07-29T05:02:59;97503.91;;;16.36;100.00
77574;BME280;66710;48.868;9.080;2023-07-29T05:05:26;97510.53;;;16.35;100.00
77574;BME280;66710;48.868;9.080;2023-07-29T05:07:51;97493.88;;;16.40;100.00
77574;BME280;66710;48.868;9.080;2023-07-29T05:10:16;97489.19;;;16.41;100.00
77574;BME280;66710;48.868;9.080;2023-07-29T05:12:42;97491.44;;;16.47;100.00
77574;BME280;66710;48.868;9.080;2023-07-29T05:15:08;97488.06;;;16.51;100.00
77574;BME280;66710;48.868;9.080;2023-07-29T05:17:33;97487.91;;;16.56;100.00
77574;BME280;66710;48.868;9.080;2023-07-29T05:19:58;97485.13;;;16.64;100.00
77574;BME280;66710;48.868;9.080;2023-07-29T05:22:24;97489.31;;;16.71;100.00
77574;BME280;66710;48.868;9.080;2023-07-29T05:24:50;97497.41;;;16.76;100.00
77574;BME280;66710;48.868;9.080;2023-07-29T05:27:15;97496.47;;;16.89;100.00
77574;BME280;66710;48.868;9.080;2023-07-29T05:29:41;97500.16;;;16.93;100.00
77574;BME280;66710;48.868;9.080;2023-07-29T05:32:06;97496.78;;;16.96;100.00
77574;BME280;66710;48.868;9.080;2023-07-29T05:34:32;97500.31;;;16.97;100.00
77574;BME280;66710;48.868;9.080;2023-07-29T05:36:57;97510.69;;;17.00;100.00
77574;BME280;66710;48.868;9.080;2023-07-29T05:39:23;97500.16;;;17.02;100.00
77574;BME280;66710;48.868;9.080;2023-07-29T05:41:49;97505.97;;;17.09;100.00
77574;BME280;66710;48.868;9.080;2023-07-29T05:44:14;97511.94;;;17.11;100.00
77574;BME280;66710;48.868;9.080;2023-07-29T05:46:40;97515.31;;;17.17;100.00
77574;BME280;66710;48.868;9.080;2023-07-29T05:49:05;97528.75;;;17.27;100.00
77574;BME280;66710;48.868;9.080;2023-07-29T05:51:30;97515.41;;;17.38;100.00
77574;BME280;66710;48.868;9.080;2023-07-29T05:53:55;97514.28;;;17.48;100.00
77574;BME280;66710;48.868;9.080;2023-07-29T05:56:21;97515.97;;;17.61;100.00
77574;BME280;66710;48.868;9.080;2023-07-29T05:58:46;97512.25;;;17.66;100.00
77574;BME280;66710;48.868;9.080;2023-07-29T06:01:11;97510.09;;;17.71;100.00
77574;BME280;66710;48.868;9.080;2023-07-29T06:03:37;97506.50;;;17.79;100.00
77574;BME280;66710;48.868;9.080;2023-07-29T06:06:02;97502.72;;;17.84;100.00
77574;BME280;66710;48.868;9.080;2023-07-29T06:08:27;97494.31;;;17.89;100.00
77574;BME280;66710;48.868;9.080;2023-07-29T06:10:59;97495.69;;;18.04;100.00
77574;BME280;66710;48.868;9.080;2023-07-29T06:13:24;97489.56;;;17.98;100.00
77574;BME280;66710;48.868;9.080;2023-07-29T06:15:49;97506.91;;;17.99;100.00
77574;BME280;66710;48.868;9.080;2023-07-29T06:18:15;97496.69;;;17.99;100.00
77574;BME280;66710;48.868;9.080;2023-07-29T06:20:40;97498.50;;;17.95;100.00
77574;BME280;66710;48.868;9.080;2023-07-29T06:23:05;97502.53;;;17.98;100.00
77574;BME280;66710;48.868;9.080;2023-07-29T06:25:31;97503.22;;;17.95;100.00
77574;BME280;66710;48.868;9.080;2023-07-29T06:27:56;97510.19;;;17.84;100.00
77574;BME280;66710;48.868;9.080;2023-07-29T06:30:23;97514.78;;;17.79;100.00
77574;BME280;66710;48.868;9.080;2023-07-29T06:32:48;97509.16;;;17.67;100.00
77574;BME280;66710;48.868;9.080;2023-07-29T06:35:14;97518.38;;;17.71;100.00
77574;BME280;66710;48.868;9.080;2023-07-29T06:37:39;97522.44;;;17.74;100.00
77574;BME280;66710;48.868;9.080;2023-07-29T06:40:05;97517.72;;;17.74;100.00
77574;BME280;66710;48.868;9.080;2023-07-29T06:42:30;97534.25;;;17.74;100.00
77574;BME280;66710;48.868;9.080;2023-07-29T06:44:55;97534.72;;;17.76;100.00
77574;BME280;66710;48.868;9.080;2023-07-29T06:47:21;97524.03;;;17.75;100.00
77574;BME280;66710;48.868;9.080;2023-07-29T06:49:46;97516.59;;;17.75;100.00
77574;BME280;66710;48.868;9.080;2023-07-29T06:52:12;97530.16;;;17.80;100.00
77574;BME280;66710;48.868;9.080;2023-07-29T06:54:37;97529.03;;;17.81;100.00
77574;BME280;66710;48.868;9.080;2023-07-29T06:57:03;97536.63;;;17.93;100.00
77574;BME280;66710;48.868;9.080;2023-07-29T06:59:28;97543.44;;;17.87;100.00
77574;BME280;66710;48.868;9.080;2023-07-29T07:01:53;97538.91;;;17.91;100.00
77574;BME280;66710;48.868;9.080;2023-07-29T07:04:19;97533.41;;;17.91;100.00
77574;BME280;66710;48.868;9.080;2023-07-29T07:06:44;97537.84;;;18.05;100.00
77574;BME280;66710;48.868;9.080;2023-07-29T07:09:09;97538.78;;;18.09;100.00
77574;BME280;66710;48.868;9.080;2023-07-29T07:11:34;97532.75;;;18.15;100.00
77574;BME280;66710;48.868;9.080;2023-07-29T07:14:00;97541.63;;;18.21;100.00
77574;BME280;66710;48.868;9.080;2023-07-29T07:16:25;97537.59;;;18.18;100.00
77574;BME280;66710;48.868;9.080;2023-07-29T07:18:51;97543.72;;;18.24;100.00
77574;BME280;66710;48.868;9.080;2023-07-29T07:21:16;97540.44;;;18.31;100.00
77574;BME280;66710;48.868;9.080;2023-07-29T07:23:41;97544.78;;;18.41;100.00
77574;BME280;66710;48.868;9.080;2023-07-29T07:26:07;97555.09;;;18.44;100.00
77574;BME280;66710;48.868;9.080;2023-07-29T07:28:32;97551.88;;;18.42;100.00
77574;BME280;66710;48.868;9.080;2023-07-29T07:30:57;97551.22;;;18.45;100.00
77574;BME280;66710;48.868;9.080;2023-07-29T07:33:24;97553.31;;;18.48;100.00
77574;BME280;66710;48.868;9.080;2023-07-29T07:35:49;97552.16;;;18.49;100.00
77574;BME280;66710;48.868;9.080;2023-07-29T07:38:14;97549.41;;;18.49;100.00
77574;BME280;66710;48.868;9.080;2023-07-29T07:40:40;97554.97;;;18.61;100.00
77574;BME280;66710;48.868;9.080;2023-07-29T07:43:05;97544.75;;;18.62;100.00
77574;BME280;66710;48.868;9.080;2023-07-29T07:45:32;97549.31;;;18.79;100.00
77574;BME280;66710;48.868;9.080;2023-07-29T07:47:57;97558.38;;;18.88;99.94
77574;BME280;66710;48.868;9.080;2023-07-29T07:50:22;97545.38;;;18.88;100.00
77574;BME280;66710;48.868;9.080;2023-07-29T07:52:49;97539.78;;;18.97;99.88
77574;BME280;66710;48.868;9.080;2023-07-29T07:55:14;97532.28;;;19.31;96.97
77574;BME280;66710;48.868;9.080;2023-07-29T07:57:40;97525.91;;;20.13;91.24
77574;BME280;66710;48.868;9.080;2023-07-29T08:00:05;97538.75;;;20.58;87.74
77574;BME280;66710;48.868;9.080;2023-07-29T08:02:31;97529.06;;;20.93;87.25
77574;BME280;66710;48.868;9.080;2023-07-29T08:04:56;97535.47;;;20.81;87.14
77574;BME280;66710;48.868;9.080;2023-07-29T08:07:21;97535.03;;;20.79;85.74
77574;BME280;66710;48.868;9.080;2023-07-29T08:09:46;97545.41;;;21.26;84.03
77574;BME280;66710;48.868;9.080;2023-07-29T08:12:12;97539.69;;;21.19;83.98
77574;BME280;66710;48.868;9.080;2023-07-29T08:14:37;97565.91;;;21.82;85.12
77574;BME280;66710;48.868;9.080;2023-07-29T08:17:02;97580.59;;;21.82;84.48
77574;BME280;66710;48.868;9.080;2023-07-29T08:19:28;97574.97;;;21.06;85.33
77574;BME280;66710;48.868;9.080;2023-07-29T08:21:53;97580.41;;;20.37;85.62
77574;BME280;66710;48.868;9.080;2023-07-29T08:24:18;97576.53;;;20.14;86.15
77574;BME280;66710;48.868;9.080;2023-07-29T08:26:44;97589.16;;;19.90;89.52
77574;BME280;66710;48.868;9.080;2023-07-29T08:29:09;97575.81;;;19.92;88.44
77574;BME280;66710;48.868;9.080;2023-07-29T08:31:34;97571.78;;;20.02;87.14
77574;BME280;66710;48.868;9.080;2023-07-29T08:34:00;97566.94;;;20.23;85.83
77574;BME280;66710;48.868;9.080;2023-07-29T08:36:26;97576.63;;;20.30;86.46
77574;BME280;66710;48.868;9.080;2023-07-29T08:38:51;97573.50;;;20.31;85.47
77574;BME280;66710;48.868;9.080;2023-07-29T08:41:27;97566.19;;;20.76;84.55
77574;BME280;66710;48.868;9.080;2023-07-29T08:44:11;97574.44;;;21.45;80.41
77574;BME280;66710;48.868;9.080;2023-07-29T08:46:39;97565.66;;;21.87;78.50
77574;BME280;66710;48.868;9.080;2023-07-29T08:49:04;97561.28;;;22.72;75.83
77574;BME280;66710;48.868;9.080;2023-07-29T08:51:31;97565.06;;;23.00;75.74
77574;BME280;66710;48.868;9.080;2023-07-29T08:53:58;97573.22;;;21.74;78.03
77574;BME280;66710;48.868;9.080;2023-07-29T08:56:24;97567.75;;;22.09;80.41
77574;BME280;66710;48.868;9.080;2023-07-29T08:58:50;97570.09;;;21.91;77.88
77574;BME280;66710;48.868;9.080;2023-07-29T09:01:15;97575.19;;;22.05;76.22
77574;BME280;66710;48.868;9.080;2023-07-29T09:03:41;97567.50;;;21.99;78.57
77574;BME280;66710;48.868;9.080;2023-07-29T09:06:07;97568.78;;;21.69;78.91
77574;BME280;66710;48.868;9.080;2023-07-29T09:08:33;97567.06;;;21.81;79.10
77574;BME280;66710;48.868;9.080;2023-07-29T09:10:58;97556.53;;;21.42;79.34
77574;BME280;66710;48.868;9.080;2023-07-29T09:13:24;97561.38;;;21.45;79.45
77574;BME280;66710;48.868;9.080;2023-07-29T09:15:54;97557.03;;;22.08;79.04
77574;BME280;66710;48.868;9.080;2023-07-29T09:18:20;97559.09;;;21.63;78.15
77574;BME280;66710;48.868;9.080;2023-07-29T09:20:47;97563.28;;;22.72;73.48
77574;BME280;66710;48.868;9.080;2023-07-29T09:23:13;97553.72;;;23.28;72.06
77574;BME280;66710;48.868;9.080;2023-07-29T09:25:39;97553.25;;;23.45;70.62
77574;BME280;66710;48.868;9.080;2023-07-29T09:28:12;97553.94;;;23.19;70.56
77574;BME280;66710;48.868;9.080;2023-07-29T09:30:40;97542.97;;;23.26;72.21
77574;BME280;66710;48.868;9.080;2023-07-29T09:33:06;97529.69;;;23.39;70.64
77574;BME280;66710;48.868;9.080;2023-07-29T09:35:36;97544.03;;;22.44;72.65
77574;BME280;66710;48.868;9.080;2023-07-29T09:38:05;97538.81;;;22.42;73.62
77574;BME280;66710;48.868;9.080;2023-07-29T09:40:36;97549.00;;;21.87;75.20
77574;BME280;66710;48.868;9.080;2023-07-29T09:43:02;97545.84;;;21.56;74.71
77574;BME280;66710;48.868;9.080;2023-07-29T09:45:29;97551.31;;;21.25;77.36
77574;BME280;66710;48.868;9.080;2023-07-29T09:47:56;97546.25;;;21.27;76.92
77574;BME280;66710;48.868;9.080;2023-07-29T09:50:26;97549.69;;;21.08;79.11
77574;BME280;66710;48.868;9.080;2023-07-29T09:52:53;97538.09;;;21.18;82.40
77574;BME280;66710;48.868;9.080;2023-07-29T09:55:21;97562.41;;;20.96;85.08
77574;BME280;66710;48.868;9.080;2023-07-29T09:57:46;97563.34;;;20.48;84.17
77574;BME280;66710;48.868;9.080;2023-07-29T10:00:12;97577.31;;;19.89;88.52
77574;BME280;66710;48.868;9.080;2023-07-29T10:02:40;97590.47;;;19.47;94.21
77574;BME280;66710;48.868;9.080;2023-07-29T10:05:07;97574.44;;;19.40;94.53
77574;BME280;66710;48.868;9.080;2023-07-29T10:07:39;97592.13;;;19.06;97.01
77574;BME280;66710;48.868;9.080;2023-07-29T10:10:06;97585.22;;;18.79;100.00
77574;BME280;66710;48.868;9.080;2023-07-29T10:12:32;97568.94;;;18.86;97.24
77574;BME280;66710;48.868;9.080;2023-07-29T10:14:59;97565.50;;;19.56;91.22
77574;BME280;66710;48.868;9.080;2023-07-29T10:17:26;97576.19;;;19.45;91.98
77574;BME280;66710;48.868;9.080;2023-07-29T10:19:53;97568.47;;;19.50;94.10
77574;BME280;66710;48.868;9.080;2023-07-29T10:22:21;97571.84;;;19.23;92.46
77574;BME280;66710;48.868;9.080;2023-07-29T10:24:51;97578.09;;;20.39;87.82
77574;BME280;66710;48.868;9.080;2023-07-29T10:27:19;97577.66;;;20.37;87.93
77574;BME280;66710;48.868;9.080;2023-07-29T10:29:45;97568.50;;;21.30;80.99
77574;BME280;66710;48.868;9.080;2023-07-29T10:32:11;97572.00;;;21.71;82.85
77574;BME280;66710;48.868;9.080;2023-07-29T10:34:37;97579.25;;;21.32;80.22
77574;BME280;66710;48.868;9.080;2023-07-29T10:37:03;97574.91;;;21.18;78.22
77574;BME280;66710;48.868;9.080;2023-07-29T10:39:39;97571.19;;;21.27;80.80
77574;BME280;66710;48.868;9.080;2023-07-29T10:42:06;97583.34;;;21.66;77.06
77574;BME280;66710;48.868;9.080;2023-07-29T10:49:43;97579.66;;;22.42;72.93
77574;BME280;66710;48.868;9.080;2023-07-29T10:52:13;97573.22;;;21.90;73.21
77574;BME280;66710;48.868;9.080;2023-07-29T10:54:46;97576.34;;;21.72;73.47
77574;BME280;66710;48.868;9.080;2023-07-29T10:57:13;97557.63;;;22.49;71.32
77574;BME280;66710;48.868;9.080;2023-07-29T10:59:39;97564.09;;;22.37;70.02
77574;BME280;66710;48.868;9.080;2023-07-29T11:02:12;97566.44;;;22.03;70.56
77574;BME280;66710;48.868;9.080;2023-07-29T11:04:50;97570.09;;;22.07;70.92
77574;BME280;66710;48.868;9.080;2023-07-29T11:12:34;97567.00;;;23.38;68.00
77574;BME280;66710;48.868;9.080;2023-07-29T11:15:03;97575.28;;;23.15;66.51
77574;BME280;66710;48.868;9.080;2023-07-29T11:17:31;97567.91;;;23.65;65.44
77574;BME280;66710;48.868;9.080;2023-07-29T11:20:00;97570.34;;;23.05;66.84
77574;BME280;66710;48.868;9.080;2023-07-29T11:22:25;97551.44;;;22.56;67.80
77574;BME280;66710;48.868;9.080;2023-07-29T11:24:51;97567.66;;;22.22;67.17
77574;BME280;66710;48.868;9.080;2023-07-29T11:27:16;97554.41;;;22.47;66.78
77574;BME280;66710;48.868;9.080;2023-07-29T11:29:41;97551.78;;;22.54;65.89
77574;BME280;66710;48.868;9.080;2023-07-29T11:32:07;97550.50;;;23.06;63.58
77574;BME280;66710;48.868;9.080;2023-07-29T11:34:32;97542.56;;;23.05;63.80
77574;BME280;66710;48.868;9.080;2023-07-29T11:36:58;97556.09;;;22.71;63.88
77574;BME280;66710;48.868;9.080;2023-07-29T11:39:23;97529.78;;;22.65;62.52
77574;BME280;66710;48.868;9.080;2023-07-29T11:41:48;97548.31;;;22.96;63.42
77574;BME280;66710;48.868;9.080;2023-07-29T11:44:17;97542.50;;;23.67;61.47
77574;BME280;66710;48.868;9.080;2023-07-29T11:46:43;97553.84;;;23.35;61.44
77574;BME280;66710;48.868;9.080;2023-07-29T11:49:09;97557.44;;;23.36;62.81
77574;BME280;66710;48.868;9.080;2023-07-29T11:51:34;97544.63;;;22.92;62.83
77574;BME280;66710;48.868;9.080;2023-07-29T11:54:01;97537.88;;;23.09;62.81
77574;BME280;66710;48.868;9.080;2023-07-29T11:56:27;97532.09;;;23.18;61.89
77574;BME280;66710;48.868;9.080;2023-07-29T11:58:53;97544.03;;;23.41;62.34
77574;BME280;66710;48.868;9.080;2023-07-29T12:01:19;97549.53;;;23.38;62.78
77574;BME280;66710;48.868;9.080;2023-07-29T12:03:44;97547.56;;;22.99;61.64
77574;BME280;66710;48.868;9.080;2023-07-29T12:06:10;97544.22;;;23.52;61.29
77574;BME280;66710;48.868;9.080;2023-07-29T12:08:35;97547.59;;;23.61;61.82
77574;BME280;66710;48.868;9.080;2023-07-29T12:11:01;97547.47;;;23.35;63.03
77574;BME280;66710;48.868;9.080;2023-07-29T12:13:26;97536.25;;;23.08;61.83
77574;BME280;66710;48.868;9.080;2023-07-29T12:16:00;97539.06;;;23.97;61.51
77574;BME280;66710;48.868;9.080;2023-07-29T12:18:30;97534.59;;;23.46;58.96
77574;BME280;66710;48.868;9.080;2023-07-29T12:20:56;97539.06;;;23.31;61.32
77574;BME280;66710;48.868;9.080;2023-07-29T12:23:24;97538.63;;;23.29;58.86
77574;BME280;66710;48.868;9.080;2023-07-29T12:25:51;97542.81;;;23.00;59.00
77574;BME280;66710;48.868;9.080;2023-07-29T12:28:17;97541.06;;;23.11;55.77
77574;BME280;66710;48.868;9.080;2023-07-29T12:30:42;97529.38;;;23.02;55.18
77574;BME280;66710;48.868;9.080;2023-07-29T12:33:08;97546.47;;;23.04;55.70
77574;BME280;66710;48.868;9.080;2023-07-29T12:35:37;97544.13;;;22.86;55.04
77574;BME280;66710;48.868;9.080;2023-07-29T12:38:02;97543.63;;;23.20;55.48
77574;BME280;66710;48.868;9.080;2023-07-29T12:40:28;97547.28;;;23.66;53.11
77574;BME280;66710;48.868;9.080;2023-07-29T12:42:53;97534.19;;;23.90;52.80
77574;BME280;66710;48.868;9.080;2023-07-29T12:45:19;97542.75;;;24.04;52.94
77574;BME280;66710;48.868;9.080;2023-07-29T12:47:46;97514.75;;;23.94;52.27
77574;BME280;66710;48.868;9.080;2023-07-29T12:50:11;97523.75;;;24.37;51.99
77574;BME280;66710;48.868;9.080;2023-07-29T12:52:37;97523.84;;;24.44;51.20
77574;BME280;66710;48.868;9.080;2023-07-29T12:55:03;97524.00;;;24.28;51.04
77574;BME280;66710;48.868;9.080;2023-07-29T12:57:28;97520.84;;;26.03;49.51
77574;BME280;66710;48.868;9.080;2023-07-29T12:59:53;97516.97;;;25.70;48.05
77574;BME280;66710;48.868;9.080;2023-07-29T13:02:19;97523.19;;;25.94;49.76